Terminal Aerodrome Forecast
Issued by NWS

Home | Current Version | Previous Version | Text Only | Print | Product List | Glossary On
Versions: 1 2 3 4 5 6 7 8 9 10 11 12 13 14
000
FTUS45 KRIW 221734
TAFCOD
TAF
KCOD 221734Z 2218/2318 VRB04KT P6SM SKC
     FM222200 VRB10G16KT P6SM VCTS SCT050CB BKN080
     FM230300 35012G20KT 5SM TSRA BKN025CB
     FM230600 34006KT 5SM -SHRA BR BKN018 OVC025
     FM231600 VRB06KT P6SM VCSH SCT020 OVC035
      AMD LTD TO CLD VIS AND WIND=

USA.gov is the U.S. government's official web portal to all federal, state and local government web resources and services.